sensor_id;sensor_type;location;lat;lon;timestamp;P1;durP1;ratioP1;P2;durP2;ratioP2
12844;SDS011;6489;48.508;9.206;2022-12-07T02:20:51;9.50;;;4.63;;
12844;SDS011;6489;48.508;9.206;2022-12-07T02:24:23;7.70;;;4.20;;
12844;SDS011;6489;48.508;9.206;2022-12-07T02:27:56;10.17;;;4.30;;
12844;SDS011;6489;48.508;9.206;2022-12-07T02:31:20;5.50;;;4.33;;
12844;SDS011;6489;48.508;9.206;2022-12-07T02:34:47;10.70;;;4.33;;
12844;SDS011;6489;48.508;9.206;2022-12-07T02:38:12;9.43;;;4.43;;
12844;SDS011;6489;48.508;9.206;2022-12-07T02:41:40;6.03;;;4.30;;
12844;SDS011;6489;48.508;9.206;2022-12-07T02:45:05;8.70;;;4.23;;
12844;SDS011;6489;48.508;9.206;2022-12-07T02:48:31;5.87;;;4.23;;
12844;SDS011;6489;48.508;9.206;2022-12-07T02:51:53;8.57;;;4.90;;
12844;SDS011;6489;48.508;9.206;2022-12-07T02:55:16;6.70;;;4.30;;
12844;SDS011;6489;48.508;9.206;2022-12-07T02:58:43;6.63;;;4.07;;
12844;SDS011;6489;48.508;9.206;2022-12-07T03:02:18;13.10;;;5.07;;
12844;SDS011;6489;48.508;9.206;2022-12-07T03:05:52;10.30;;;5.40;;
12844;SDS011;6489;48.508;9.206;2022-12-07T03:09:32;6.37;;;4.63;;
12844;SDS011;6489;48.508;9.206;2022-12-07T03:13:01;12.67;;;4.93;;
12844;SDS011;6489;48.508;9.206;2022-12-07T03:16:26;5.93;;;4.60;;
12844;SDS011;6489;48.508;9.206;2022-12-07T03:19:51;10.67;;;5.47;;
12844;SDS011;6489;48.508;9.206;2022-12-07T03:23:19;8.90;;;5.17;;
12844;SDS011;6489;48.508;9.206;2022-12-07T03:26:46;11.90;;;6.17;;
12844;SDS011;6489;48.508;9.206;2022-12-07T03:30:11;13.57;;;5.93;;
12844;SDS011;6489;48.508;9.206;2022-12-07T03:33:38;9.10;;;5.67;;
12844;SDS011;6489;48.508;9.206;2022-12-07T03:37:04;8.23;;;5.83;;
12844;SDS011;6489;48.508;9.206;2022-12-07T03:40:32;9.60;;;5.83;;
12844;SDS011;6489;48.508;9.206;2022-12-07T03:43:58;8.73;;;6.70;;
12844;SDS011;6489;48.508;9.206;2022-12-07T03:47:21;12.20;;;6.07;;
12844;SDS011;6489;48.508;9.206;2022-12-07T03:50:52;12.40;;;6.97;;
12844;SDS011;6489;48.508;9.206;2022-12-07T03:54:22;10.03;;;6.77;;
12844;SDS011;6489;48.508;9.206;2022-12-07T03:57:49;11.43;;;6.00;;
12844;SDS011;6489;48.508;9.206;2022-12-07T04:01:17;9.97;;;6.43;;
12844;SDS011;6489;48.508;9.206;2022-12-07T04:04:39;14.53;;;6.90;;
12844;SDS011;6489;48.508;9.206;2022-12-07T04:08:02;13.03;;;6.87;;
12844;SDS011;6489;48.508;9.206;2022-12-07T04:11:24;18.23;;;8.03;;
12844;SDS011;6489;48.508;9.206;2022-12-07T04:14:48;10.43;;;6.80;;
12844;SDS011;6489;48.508;9.206;2022-12-07T04:18:10;9.57;;;6.67;;
12844;SDS011;6489;48.508;9.206;2022-12-07T04:21:32;12.17;;;6.07;;
12844;SDS011;6489;48.508;9.206;2022-12-07T04:24:54;16.80;;;6.60;;
12844;SDS011;6489;48.508;9.206;2022-12-07T04:28:16;10.40;;;6.27;;
12844;SDS011;6489;48.508;9.206;2022-12-07T04:31:40;9.07;;;6.10;;
12844;SDS011;6489;48.508;9.206;2022-12-07T04:35:03;10.67;;;6.40;;
12844;SDS011;6489;48.508;9.206;2022-12-07T04:38:25;12.53;;;6.83;;
12844;SDS011;6489;48.508;9.206;2022-12-07T04:41:47;14.63;;;6.30;;
12844;SDS011;6489;48.508;9.206;2022-12-07T04:45:10;14.87;;;7.33;;
12844;SDS011;6489;48.508;9.206;2022-12-07T04:48:33;15.87;;;7.30;;
12844;SDS011;6489;48.508;9.206;2022-12-07T04:51:55;18.60;;;7.70;;
12844;SDS011;6489;48.508;9.206;2022-12-07T04:55:18;9.63;;;6.20;;
12844;SDS011;6489;48.508;9.206;2022-12-07T04:58:40;12.13;;;6.17;;
12844;SDS011;6489;48.508;9.206;2022-12-07T05:02:02;17.03;;;6.50;;
12844;SDS011;6489;48.508;9.206;2022-12-07T05:05:26;9.47;;;6.00;;
12844;SDS011;6489;48.508;9.206;2022-12-07T05:08:48;12.70;;;6.93;;
12844;SDS011;6489;48.508;9.206;2022-12-07T05:12:10;21.07;;;7.03;;
12844;SDS011;6489;48.508;9.206;2022-12-07T05:15:32;8.97;;;6.30;;
12844;SDS011;6489;48.508;9.206;2022-12-07T05:18:54;15.53;;;7.27;;
12844;SDS011;6489;48.508;9.206;2022-12-07T05:22:18;10.57;;;6.17;;
12844;SDS011;6489;48.508;9.206;2022-12-07T05:25:40;16.40;;;6.80;;
12844;SDS011;6489;48.508;9.206;2022-12-07T05:29:04;9.67;;;5.63;;
12844;SDS011;6489;48.508;9.206;2022-12-07T05:32:26;10.27;;;6.17;;
12844;SDS011;6489;48.508;9.206;2022-12-07T05:35:48;12.37;;;6.77;;
12844;SDS011;6489;48.508;9.206;2022-12-07T05:39:12;10.83;;;6.17;;
12844;SDS011;6489;48.508;9.206;2022-12-07T05:42:34;12.47;;;6.23;;
12844;SDS011;6489;48.508;9.206;2022-12-07T05:45:56;12.53;;;6.43;;
12844;SDS011;6489;48.508;9.206;2022-12-07T05:49:18;32.27;;;7.60;;
12844;SDS011;6489;48.508;9.206;2022-12-07T05:52:41;22.60;;;6.53;;
12844;SDS011;6489;48.508;9.206;2022-12-07T05:56:04;8.27;;;5.57;;
12844;SDS011;6489;48.508;9.206;2022-12-07T05:59:27;14.50;;;5.80;;
12844;SDS011;6489;48.508;9.206;2022-12-07T06:02:49;33.97;;;7.07;;
12844;SDS011;6489;48.508;9.206;2022-12-07T06:06:11;10.37;;;6.23;;
12844;SDS011;6489;48.508;9.206;2022-12-07T06:09:34;14.50;;;6.50;;
12844;SDS011;6489;48.508;9.206;2022-12-07T06:12:57;24.30;;;7.27;;
12844;SDS011;6489;48.508;9.206;2022-12-07T06:16:19;11.27;;;6.43;;
12844;SDS011;6489;48.508;9.206;2022-12-07T06:19:41;16.23;;;7.30;;
12844;SDS011;6489;48.508;9.206;2022-12-07T06:23:03;19.33;;;7.47;;
12844;SDS011;6489;48.508;9.206;2022-12-07T06:26:26;13.20;;;7.17;;
12844;SDS011;6489;48.508;9.206;2022-12-07T06:29:49;12.20;;;7.70;;
12844;SDS011;6489;48.508;9.206;2022-12-07T06:33:13;18.07;;;7.27;;
12844;SDS011;6489;48.508;9.206;2022-12-07T06:36:35;19.13;;;7.63;;
12844;SDS011;6489;48.508;9.206;2022-12-07T06:39:57;23.27;;;7.30;;
12844;SDS011;6489;48.508;9.206;2022-12-07T06:43:19;17.60;;;7.27;;
12844;SDS011;6489;48.508;9.206;2022-12-07T06:46:43;20.97;;;7.70;;
12844;SDS011;6489;48.508;9.206;2022-12-07T06:50:06;15.70;;;7.57;;
12844;SDS011;6489;48.508;9.206;2022-12-07T06:53:28;12.20;;;7.63;;
12844;SDS011;6489;48.508;9.206;2022-12-07T06:56:50;16.57;;;7.47;;
12844;SDS011;6489;48.508;9.206;2022-12-07T07:00:13;52.97;;;9.87;;
12844;SDS011;6489;48.508;9.206;2022-12-07T07:03:37;18.50;;;8.17;;
12844;SDS011;6489;48.508;9.206;2022-12-07T07:07:00;15.53;;;8.00;;
12844;SDS011;6489;48.508;9.206;2022-12-07T07:10:22;16.30;;;7.57;;
12844;SDS011;6489;48.508;9.206;2022-12-07T07:13:44;23.60;;;8.27;;
12844;SDS011;6489;48.508;9.206;2022-12-07T07:17:06;36.40;;;9.70;;
12844;SDS011;6489;48.508;9.206;2022-12-07T07:20:30;25.93;;;11.63;;
12844;SDS011;6489;48.508;9.206;2022-12-07T07:23:52;43.87;;;17.60;;
12844;SDS011;6489;48.508;9.206;2022-12-07T07:27:14;115.93;;;29.53;;
12844;SDS011;6489;48.508;9.206;2022-12-07T07:30:37;53.87;;;18.83;;
12844;SDS011;6489;48.508;9.206;2022-12-07T07:33:59;30.10;;;10.73;;
12844;SDS011;6489;48.508;9.206;2022-12-07T07:37:23;19.80;;;8.10;;
12844;SDS011;6489;48.508;9.206;2022-12-07T07:40:45;22.30;;;9.23;;
12844;SDS011;6489;48.508;9.206;2022-12-07T07:44:07;14.33;;;7.63;;
12844;SDS011;6489;48.508;9.206;2022-12-07T07:47:29;19.43;;;8.20;;
12844;SDS011;6489;48.508;9.206;2022-12-07T07:50:52;20.67;;;7.70;;
12844;SDS011;6489;48.508;9.206;2022-12-07T07:54:15;15.87;;;7.80;;
12844;SDS011;6489;48.508;9.206;2022-12-07T07:57:38;15.53;;;7.60;;
12844;SDS011;6489;48.508;9.206;2022-12-07T08:01:03;24.53;;;8.57;;
12844;SDS011;6489;48.508;9.206;2022-12-07T08:04:25;23.67;;;8.73;;
12844;SDS011;6489;48.508;9.206;2022-12-07T08:07:47;18.13;;;9.03;;
12844;SDS011;6489;48.508;9.206;2022-12-07T08:11:11;47.23;;;17.97;;
12844;SDS011;6489;48.508;9.206;2022-12-07T08:14:33;28.40;;;9.13;;
12844;SDS011;6489;48.508;9.206;2022-12-07T08:17:55;19.77;;;8.43;;
12844;SDS011;6489;48.508;9.206;2022-12-07T08:21:18;18.20;;;8.83;;
12844;SDS011;6489;48.508;9.206;2022-12-07T08:24:40;10.10;;;7.23;;
12844;SDS011;6489;48.508;9.206;2022-12-07T08:28:03;18.07;;;7.83;;
12844;SDS011;6489;48.508;9.206;2022-12-07T08:31:26;19.77;;;8.20;;
12844;SDS011;6489;48.508;9.206;2022-12-07T08:34:48;40.50;;;13.03;;
12844;SDS011;6489;48.508;9.206;2022-12-07T08:38:11;28.47;;;13.93;;
12844;SDS011;6489;48.508;9.206;2022-12-07T08:41:33;22.40;;;9.77;;
12844;SDS011;6489;48.508;9.206;2022-12-07T08:44:57;29.37;;;9.63;;
12844;SDS011;6489;48.508;9.206;2022-12-07T08:48:19;23.73;;;8.60;;
12844;SDS011;6489;48.508;9.206;2022-12-07T08:51:44;43.90;;;9.57;;
12844;SDS011;6489;48.508;9.206;2022-12-07T08:55:07;20.57;;;8.40;;
12844;SDS011;6489;48.508;9.206;2022-12-07T08:58:31;12.13;;;6.97;;
12844;SDS011;6489;48.508;9.206;2022-12-07T09:01:55;19.27;;;7.70;;
12844;SDS011;6489;48.508;9.206;2022-12-07T09:05:17;22.07;;;7.77;;
12844;SDS011;6489;48.508;9.206;2022-12-07T09:08:40;19.90;;;7.60;;
12844;SDS011;6489;48.508;9.206;2022-12-07T09:12:06;18.43;;;7.57;;
12844;SDS011;6489;48.508;9.206;2022-12-07T09:15:29;16.03;;;7.80;;
12844;SDS011;6489;48.508;9.206;2022-12-07T09:18:52;24.17;;;8.67;;
12844;SDS011;6489;48.508;9.206;2022-12-07T09:22:15;20.43;;;8.73;;
12844;SDS011;6489;48.508;9.206;2022-12-07T09:25:37;18.90;;;8.83;;
12844;SDS011;6489;48.508;9.206;2022-12-07T09:28:59;11.60;;;7.20;;
12844;SDS011;6489;48.508;9.206;2022-12-07T09:32:22;30.27;;;8.90;;
12844;SDS011;6489;48.508;9.206;2022-12-07T09:35:48;22.30;;;7.50;;
12844;SDS011;6489;48.508;9.206;2022-12-07T09:39:12;17.70;;;7.77;;
12844;SDS011;6489;48.508;9.206;2022-12-07T09:42:36;17.37;;;7.83;;
12844;SDS011;6489;48.508;9.206;2022-12-07T09:46:00;19.83;;;8.17;;
12844;SDS011;6489;48.508;9.206;2022-12-07T09:49:24;25.47;;;9.20;;
12844;SDS011;6489;48.508;9.206;2022-12-07T09:52:48;23.57;;;8.60;;
12844;SDS011;6489;48.508;9.206;2022-12-07T09:56:11;10.80;;;6.87;;
12844;SDS011;6489;48.508;9.206;2022-12-07T09:59:35;11.80;;;7.07;;
12844;SDS011;6489;48.508;9.206;2022-12-07T10:02:58;16.83;;;7.27;;
12844;SDS011;6489;48.508;9.206;2022-12-07T10:06:21;16.47;;;6.90;;
12844;SDS011;6489;48.508;9.206;2022-12-07T10:09:45;9.93;;;6.00;;
12844;SDS011;6489;48.508;9.206;2022-12-07T10:13:08;15.00;;;6.17;;
12844;SDS011;6489;48.508;9.206;2022-12-07T10:16:32;19.53;;;7.37;;
12844;SDS011;6489;48.508;9.206;2022-12-07T10:20:11;17.07;;;6.63;;
12844;SDS011;6489;48.508;9.206;2022-12-07T10:23:40;16.07;;;6.40;;
12844;SDS011;6489;48.508;9.206;2022-12-07T10:27:04;9.07;;;5.57;;
12844;SDS011;6489;48.508;9.206;2022-12-07T10:30:26;20.57;;;7.00;;
12844;SDS011;6489;48.508;9.206;2022-12-07T10:33:49;19.03;;;7.60;;
12844;SDS011;6489;48.508;9.206;2022-12-07T10:37:16;18.90;;;5.90;;
12844;SDS011;6489;48.508;9.206;2022-12-07T10:40:39;11.50;;;4.93;;
12844;SDS011;6489;48.508;9.206;2022-12-07T10:44:03;16.40;;;5.60;;
12844;SDS011;6489;48.508;9.206;2022-12-07T10:47:29;9.87;;;5.43;;
12844;SDS011;6489;48.508;9.206;2022-12-07T10:50:59;16.20;;;5.30;;
12844;SDS011;6489;48.508;9.206;2022-12-07T10:54:30;10.60;;;5.77;;
12844;SDS011;6489;48.508;9.206;2022-12-07T10:58:07;16.23;;;5.70;;
12844;SDS011;6489;48.508;9.206;2022-12-07T11:03:39;13.27;;;5.20;;
12844;SDS011;6489;48.508;9.206;2022-12-07T11:07:06;12.97;;;5.67;;
12844;SDS011;6489;48.508;9.206;2022-12-07T11:10:37;7.43;;;4.63;;
12844;SDS011;6489;48.508;9.206;2022-12-07T11:14:10;24.30;;;5.73;;
12844;SDS011;6489;48.508;9.206;2022-12-07T11:17:40;16.77;;;5.53;;
12844;SDS011;6489;48.508;9.206;2022-12-07T11:21:12;7.93;;;4.63;;
12844;SDS011;6489;48.508;9.206;2022-12-07T11:24:40;11.10;;;5.27;;
12844;SDS011;6489;48.508;9.206;2022-12-07T11:28:11;15.87;;;5.10;;
12844;SDS011;6489;48.508;9.206;2022-12-07T11:31:50;12.97;;;5.50;;
12844;SDS011;6489;48.508;9.206;2022-12-07T11:35:22;13.93;;;6.10;;
12844;SDS011;6489;48.508;9.206;2022-12-07T11:38:54;16.47;;;5.70;;
12844;SDS011;6489;48.508;9.206;2022-12-07T11:42:19;21.17;;;6.50;;
12844;SDS011;6489;48.508;9.206;2022-12-07T11:45:44;14.40;;;5.60;;
12844;SDS011;6489;48.508;9.206;2022-12-07T11:49:08;10.33;;;5.13;;
12844;SDS011;6489;48.508;9.206;2022-12-07T11:52:32;18.63;;;5.60;;
12844;SDS011;6489;48.508;9.206;2022-12-07T11:56:08;18.07;;;6.03;;
12844;SDS011;6489;48.508;9.206;2022-12-07T11:59:31;9.23;;;4.90;;
12844;SDS011;6489;48.508;9.206;2022-12-07T12:02:56;14.57;;;5.03;;
12844;SDS011;6489;48.508;9.206;2022-12-07T12:06:22;19.27;;;5.33;;
12844;SDS011;6489;48.508;9.206;2022-12-07T12:09:46;16.27;;;5.37;;
12844;SDS011;6489;48.508;9.206;2022-12-07T12:13:18;13.83;;;5.17;;
12844;SDS011;6489;48.508;9.206;2022-12-07T12:17:03;11.93;;;5.00;;
12844;SDS011;6489;48.508;9.206;2022-12-07T12:20:55;15.27;;;4.43;;
12844;SDS011;6489;48.508;9.206;2022-12-07T12:24:21;20.47;;;5.73;;
12844;SDS011;6489;48.508;9.206;2022-12-07T12:27:45;11.07;;;4.07;;
12844;SDS011;6489;48.508;9.206;2022-12-07T12:31:13;26.87;;;4.93;;
12844;SDS011;6489;48.508;9.206;2022-12-07T12:34:38;11.90;;;4.37;;
12844;SDS011;6489;48.508;9.206;2022-12-07T12:41:56;15.73;;;5.07;;
12844;SDS011;6489;48.508;9.206;2022-12-07T12:45:28;18.63;;;5.67;;
12844;SDS011;6489;48.508;9.206;2022-12-07T12:48:53;14.83;;;5.13;;
12844;SDS011;6489;48.508;9.206;2022-12-07T12:56:19;12.13;;;4.27;;
12844;SDS011;6489;48.508;9.206;2022-12-07T12:59:56;7.97;;;4.73;;
12844;SDS011;6489;48.508;9.206;2022-12-07T13:03:26;20.50;;;6.93;;
12844;SDS011;6489;48.508;9.206;2022-12-07T13:06:51;19.30;;;5.17;;
12844;SDS011;6489;48.508;9.206;2022-12-07T13:10:20;9.90;;;4.50;;
12844;SDS011;6489;48.508;9.206;2022-12-07T13:13:43;14.63;;;4.30;;
12844;SDS011;6489;48.508;9.206;2022-12-07T13:17:07;25.60;;;15.03;;
12844;SDS011;6489;48.508;9.206;2022-12-07T13:20:46;18.03;;;5.60;;
12844;SDS011;6489;48.508;9.206;2022-12-07T13:24:10;10.03;;;4.63;;
12844;SDS011;6489;48.508;9.206;2022-12-07T13:27:35;9.67;;;4.17;;
12844;SDS011;6489;48.508;9.206;2022-12-07T13:31:01;19.67;;;5.20;;
12844;SDS011;6489;48.508;9.206;2022-12-07T13:34:32;9.87;;;4.23;;
12844;SDS011;6489;48.508;9.206;2022-12-07T13:37:55;16.07;;;4.60;;
12844;SDS011;6489;48.508;9.206;2022-12-07T13:41:20;16.80;;;5.10;;
12844;SDS011;6489;48.508;9.206;2022-12-07T13:44:45;8.67;;;4.27;;
12844;SDS011;6489;48.508;9.206;2022-12-07T13:48:08;12.07;;;4.20;;
12844;SDS011;6489;48.508;9.206;2022-12-07T13:51:36;13.97;;;4.93;;
12844;SDS011;6489;48.508;9.206;2022-12-07T13:54:59;19.37;;;5.50;;
12844;SDS011;6489;48.508;9.206;2022-12-07T13:58:24;19.57;;;5.43;;
12844;SDS011;6489;48.508;9.206;2022-12-07T14:01:48;12.90;;;6.70;;
12844;SDS011;6489;48.508;9.206;2022-12-07T14:05:13;15.30;;;4.90;;
12844;SDS011;6489;48.508;9.206;2022-12-07T14:08:37;19.13;;;4.70;;
12844;SDS011;6489;48.508;9.206;2022-12-07T14:12:00;14.00;;;5.77;;
12844;SDS011;6489;48.508;9.206;2022-12-07T14:15:30;23.03;;;6.20;;
12844;SDS011;6489;48.508;9.206;2022-12-07T14:18:53;31.23;;;5.83;;
12844;SDS011;6489;48.508;9.206;2022-12-07T14:22:21;20.33;;;5.10;;
12844;SDS011;6489;48.508;9.206;2022-12-07T14:25:46;20.70;;;4.77;;
12844;SDS011;6489;48.508;9.206;2022-12-07T14:29:18;12.83;;;4.60;;
12844;SDS011;6489;48.508;9.206;2022-12-07T14:32:42;13.90;;;5.17;;
12844;SDS011;6489;48.508;9.206;2022-12-07T14:36:08;16.73;;;5.30;;
12844;SDS011;6489;48.508;9.206;2022-12-07T14:39:31;14.97;;;5.00;;
12844;SDS011;6489;48.508;9.206;2022-12-07T14:42:54;26.70;;;6.00;;
12844;SDS011;6489;48.508;9.206;2022-12-07T14:46:18;38.77;;;6.90;;
12844;SDS011;6489;48.508;9.206;2022-12-07T14:49:42;14.80;;;7.30;;
12844;SDS011;6489;48.508;9.206;2022-12-07T14:53:06;14.23;;;5.87;;
12844;SDS011;6489;48.508;9.206;2022-12-07T14:56:31;29.47;;;6.57;;
12844;SDS011;6489;48.508;9.206;2022-12-07T14:59:54;25.93;;;6.30;;
12844;SDS011;6489;48.508;9.206;2022-12-07T15:03:16;25.73;;;6.77;;
12844;SDS011;6489;48.508;9.206;2022-12-07T15:06:41;31.17;;;9.13;;
12844;SDS011;6489;48.508;9.206;2022-12-07T15:10:04;13.80;;;7.47;;
12844;SDS011;6489;48.508;9.206;2022-12-07T15:13:27;25.90;;;7.53;;
12844;SDS011;6489;48.508;9.206;2022-12-07T15:17:07;14.37;;;6.00;;
12844;SDS011;6489;48.508;9.206;2022-12-07T15:20:32;28.50;;;8.60;;
12844;SDS011;6489;48.508;9.206;2022-12-07T15:23:56;25.50;;;8.53;;
12844;SDS011;6489;48.508;9.206;2022-12-07T15:27:18;33.13;;;10.17;;
12844;SDS011;6489;48.508;9.206;2022-12-07T15:30:41;21.10;;;8.03;;
12844;SDS011;6489;48.508;9.206;2022-12-07T15:34:04;15.37;;;6.50;;
12844;SDS011;6489;48.508;9.206;2022-12-07T15:37:27;31.80;;;7.53;;
12844;SDS011;6489;48.508;9.206;2022-12-07T15:40:50;19.43;;;6.70;;
12844;SDS011;6489;48.508;9.206;2022-12-07T15:44:13;19.63;;;7.53;;
12844;SDS011;6489;48.508;9.206;2022-12-07T15:47:53;22.17;;;8.97;;
12844;SDS011;6489;48.508;9.206;2022-12-07T15:51:16;29.60;;;13.77;;
12844;SDS011;6489;48.508;9.206;2022-12-07T15:54:38;28.13;;;10.80;;
12844;SDS011;6489;48.508;9.206;2022-12-07T15:58:03;28.10;;;9.23;;
12844;SDS011;6489;48.508;9.206;2022-12-07T16:01:26;29.60;;;8.70;;
12844;SDS011;6489;48.508;9.206;2022-12-07T16:04:49;21.47;;;13.30;;
12844;SDS011;6489;48.508;9.206;2022-12-07T16:08:13;19.07;;;9.93;;
12844;SDS011;6489;48.508;9.206;2022-12-07T16:11:35;28.20;;;9.97;;
12844;SDS011;6489;48.508;9.206;2022-12-07T16:15:00;12.80;;;6.33;;
12844;SDS011;6489;48.508;9.206;2022-12-07T16:18:22;16.23;;;6.73;;
12844;SDS011;6489;48.508;9.206;2022-12-07T16:21:45;20.07;;;5.77;;
12844;SDS011;6489;48.508;9.206;2022-12-07T16:25:07;18.73;;;6.37;;
12844;SDS011;6489;48.508;9.206;2022-12-07T16:28:31;27.07;;;8.03;;
12844;SDS011;6489;48.508;9.206;2022-12-07T16:31:56;24.30;;;7.33;;
12844;SDS011;6489;48.508;9.206;2022-12-07T16:35:18;35.57;;;7.83;;
12844;SDS011;6489;48.508;9.206;2022-12-07T16:38:40;33.13;;;8.33;;
12844;SDS011;6489;48.508;9.206;2022-12-07T16:42:03;33.70;;;9.17;;
12844;SDS011;6489;48.508;9.206;2022-12-07T16:45:25;16.53;;;6.70;;
12844;SDS011;6489;48.508;9.206;2022-12-07T16:48:51;20.10;;;6.77;;
12844;SDS011;6489;48.508;9.206;2022-12-07T16:52:13;10.83;;;5.97;;
12844;SDS011;6489;48.508;9.206;2022-12-07T16:55:38;26.30;;;7.63;;
12844;SDS011;6489;48.508;9.206;2022-12-07T16:59:01;36.80;;;7.97;;
12844;SDS011;6489;48.508;9.206;2022-12-07T17:02:24;32.17;;;16.23;;
12844;SDS011;6489;48.508;9.206;2022-12-07T17:05:47;30.20;;;8.73;;
12844;SDS011;6489;48.508;9.206;2022-12-07T17:09:11;31.27;;;9.40;;
12844;SDS011;6489;48.508;9.206;2022-12-07T17:12:33;35.63;;;9.20;;
12844;SDS011;6489;48.508;9.206;2022-12-07T17:15:59;23.33;;;6.87;;
12844;SDS011;6489;48.508;9.206;2022-12-07T17:19:21;14.63;;;6.63;;
12844;SDS011;6489;48.508;9.206;2022-12-07T17:22:44;20.83;;;7.63;;
12844;SDS011;6489;48.508;9.206;2022-12-07T17:26:07;9.37;;;5.73;;
12844;SDS011;6489;48.508;9.206;2022-12-07T17:29:31;11.37;;;5.60;;
12844;SDS011;6489;48.508;9.206;2022-12-07T17:32:53;14.23;;;5.47;;
12844;SDS011;6489;48.508;9.206;2022-12-07T17:36:16;25.10;;;9.80;;
12844;SDS011;6489;48.508;9.206;2022-12-07T17:39:40;30.67;;;14.90;;
12844;SDS011;6489;48.508;9.206;2022-12-07T17:43:03;18.13;;;7.50;;
12844;SDS011;6489;48.508;9.206;2022-12-07T17:46:25;17.43;;;7.27;;
12844;SDS011;6489;48.508;9.206;2022-12-07T17:49:47;28.20;;;7.70;;
12844;SDS011;6489;48.508;9.206;2022-12-07T17:53:10;30.83;;;8.63;;
12844;SDS011;6489;48.508;9.206;2022-12-07T17:56:32;29.83;;;7.63;;
12844;SDS011;6489;48.508;9.206;2022-12-07T17:59:54;32.57;;;9.53;;
12844;SDS011;6489;48.508;9.206;2022-12-07T18:03:17;18.97;;;10.53;;
12844;SDS011;6489;48.508;9.206;2022-12-07T18:06:39;28.43;;;9.17;;
12844;SDS011;6489;48.508;9.206;2022-12-07T18:10:02;16.93;;;7.43;;
12844;SDS011;6489;48.508;9.206;2022-12-07T18:13:28;14.23;;;7.20;;
12844;SDS011;6489;48.508;9.206;2022-12-07T18:16:56;14.70;;;6.50;;
12844;SDS011;6489;48.508;9.206;2022-12-07T18:20:18;42.37;;;12.57;;
12844;SDS011;6489;48.508;9.206;2022-12-07T18:23:40;33.40;;;8.73;;
12844;SDS011;6489;48.508;9.206;2022-12-07T18:27:07;19.83;;;9.17;;
12844;SDS011;6489;48.508;9.206;2022-12-07T18:30:31;20.40;;;10.27;;
12844;SDS011;6489;48.508;9.206;2022-12-07T18:33:53;23.53;;;10.03;;
12844;SDS011;6489;48.508;9.206;2022-12-07T18:37:16;20.43;;;10.30;;
12844;SDS011;6489;48.508;9.206;2022-12-07T18:40:38;22.73;;;10.23;;
12844;SDS011;6489;48.508;9.206;2022-12-07T18:44:02;19.23;;;8.77;;
12844;SDS011;6489;48.508;9.206;2022-12-07T18:47:25;19.07;;;9.57;;
12844;SDS011;6489;48.508;9.206;2022-12-07T18:50:58;13.90;;;6.37;;
12844;SDS011;6489;48.508;9.206;2022-12-07T18:54:21;17.63;;;7.60;;
12844;SDS011;6489;48.508;9.206;2022-12-07T18:57:44;17.83;;;7.43;;
12844;SDS011;6489;48.508;9.206;2022-12-07T19:01:06;13.47;;;7.53;;
12844;SDS011;6489;48.508;9.206;2022-12-07T19:04:30;11.87;;;6.53;;
12844;SDS011;6489;48.508;9.206;2022-12-07T19:07:52;18.70;;;7.43;;
12844;SDS011;6489;48.508;9.206;2022-12-07T19:11:17;18.13;;;7.80;;
12844;SDS011;6489;48.508;9.206;2022-12-07T19:14:57;16.13;;;6.90;;
12844;SDS011;6489;48.508;9.206;2022-12-07T19:18:19;17.80;;;7.10;;
12844;SDS011;6489;48.508;9.206;2022-12-07T19:21:43;12.10;;;5.60;;
12844;SDS011;6489;48.508;9.206;2022-12-07T19:25:05;21.67;;;7.30;;
12844;SDS011;6489;48.508;9.206;2022-12-07T19:28:28;30.03;;;8.13;;
12844;SDS011;6489;48.508;9.206;2022-12-07T19:31:50;17.70;;;6.13;;
12844;SDS011;6489;48.508;9.206;2022-12-07T19:35:12;16.80;;;6.00;;
12844;SDS011;6489;48.508;9.206;2022-12-07T19:38:36;8.73;;;5.00;;
12844;SDS011;6489;48.508;9.206;2022-12-07T19:41:58;9.93;;;4.73;;
12844;SDS011;6489;48.508;9.206;2022-12-07T19:45:20;15.13;;;5.30;;
12844;SDS011;6489;48.508;9.206;2022-12-07T19:48:42;6.40;;;4.57;;
12844;SDS011;6489;48.508;9.206;2022-12-07T19:52:05;10.97;;;4.13;;
12844;SDS011;6489;48.508;9.206;2022-12-07T19:55:29;14.97;;;4.90;;
12844;SDS011;6489;48.508;9.206;2022-12-07T19:58:51;7.17;;;4.10;;
12844;SDS011;6489;48.508;9.206;2022-12-07T20:02:14;14.27;;;6.20;;
12844;SDS011;6489;48.508;9.206;2022-12-07T20:05:36;16.60;;;6.93;;
12844;SDS011;6489;48.508;9.206;2022-12-07T20:08:59;15.40;;;5.97;;
12844;SDS011;6489;48.508;9.206;2022-12-07T20:12:22;10.03;;;5.63;;
12844;SDS011;6489;48.508;9.206;2022-12-07T20:16:02;16.07;;;5.73;;
12844;SDS011;6489;48.508;9.206;2022-12-07T20:19:25;13.40;;;5.87;;
12844;SDS011;6489;48.508;9.206;2022-12-07T20:22:47;32.33;;;6.97;;
12844;SDS011;6489;48.508;9.206;2022-12-07T20:26:10;13.83;;;5.20;;
12844;SDS011;6489;48.508;9.206;2022-12-07T20:29:36;8.60;;;5.47;;
12844;SDS011;6489;48.508;9.206;2022-12-07T20:32:59;12.00;;;5.47;;
12844;SDS011;6489;48.508;9.206;2022-12-07T20:36:21;10.57;;;5.60;;
12844;SDS011;6489;48.508;9.206;2022-12-07T20:39:43;11.97;;;5.50;;
12844;SDS011;6489;48.508;9.206;2022-12-07T20:43:05;8.50;;;5.03;;
12844;SDS011;6489;48.508;9.206;2022-12-07T20:46:30;11.77;;;5.90;;
12844;SDS011;6489;48.508;9.206;2022-12-07T20:49:52;11.00;;;5.23;;
12844;SDS011;6489;48.508;9.206;2022-12-07T20:53:14;9.97;;;5.40;;
12844;SDS011;6489;48.508;9.206;2022-12-07T20:56:36;18.27;;;5.53;;
12844;SDS011;6489;48.508;9.206;2022-12-07T20:59:59;9.77;;;4.87;;
12844;SDS011;6489;48.508;9.206;2022-12-07T21:03:22;9.50;;;4.97;;
12844;SDS011;6489;48.508;9.206;2022-12-07T21:06:45;13.20;;;5.37;;
12844;SDS011;6489;48.508;9.206;2022-12-07T21:10:07;7.67;;;4.50;;
12844;SDS011;6489;48.508;9.206;2022-12-07T21:13:29;8.40;;;4.83;;
12844;SDS011;6489;48.508;9.206;2022-12-07T21:16:52;9.20;;;4.43;;
12844;SDS011;6489;48.508;9.206;2022-12-07T21:20:15;16.83;;;5.63;;
12844;SDS011;6489;48.508;9.206;2022-12-07T21:23:37;25.17;;;5.97;;
12844;SDS011;6489;48.508;9.206;2022-12-07T21:27:00;9.20;;;5.00;;
12844;SDS011;6489;48.508;9.206;2022-12-07T21:30:22;5.93;;;4.57;;
12844;SDS011;6489;48.508;9.206;2022-12-07T21:33:45;10.03;;;4.87;;
12844;SDS011;6489;48.508;9.206;2022-12-07T21:37:08;16.03;;;8.03;;
12844;SDS011;6489;48.508;9.206;2022-12-07T21:40:31;11.67;;;4.70;;
12844;SDS011;6489;48.508;9.206;2022-12-07T21:43:53;9.80;;;5.50;;
12844;SDS011;6489;48.508;9.206;2022-12-07T21:47:15;14.43;;;5.80;;
12844;SDS011;6489;48.508;9.206;2022-12-07T21:50:37;9.03;;;4.63;;
12844;SDS011;6489;48.508;9.206;2022-12-07T21:54:02;10.27;;;5.37;;
12844;SDS011;6489;48.508;9.206;2022-12-07T21:57:25;10.07;;;5.37;;
12844;SDS011;6489;48.508;9.206;2022-12-07T22:00:47;10.73;;;5.03;;
12844;SDS011;6489;48.508;9.206;2022-12-07T22:04:10;9.63;;;5.00;;
12844;SDS011;6489;48.508;9.206;2022-12-07T22:07:35;10.83;;;5.43;;
12844;SDS011;6489;48.508;9.206;2022-12-07T22:11:00;9.20;;;5.13;;
12844;SDS011;6489;48.508;9.206;2022-12-07T22:14:22;8.63;;;5.57;;
12844;SDS011;6489;48.508;9.206;2022-12-07T22:18:02;12.10;;;5.87;;
12844;SDS011;6489;48.508;9.206;2022-12-07T22:21:25;10.67;;;6.27;;
12844;SDS011;6489;48.508;9.206;2022-12-07T22:24:47;11.07;;;6.37;;
12844;SDS011;6489;48.508;9.206;2022-12-07T22:28:12;17.70;;;7.07;;
12844;SDS011;6489;48.508;9.206;2022-12-07T22:31:34;12.73;;;7.07;;
12844;SDS011;6489;48.508;9.206;2022-12-07T22:34:57;12.77;;;7.00;;
12844;SDS011;6489;48.508;9.206;2022-12-07T22:38:19;13.23;;;6.53;;
12844;SDS011;6489;48.508;9.206;2022-12-07T22:41:41;20.90;;;8.10;;
12844;SDS011;6489;48.508;9.206;2022-12-07T22:45:05;17.07;;;7.00;;
12844;SDS011;6489;48.508;9.206;2022-12-07T22:48:28;11.30;;;7.13;;
12844;SDS011;6489;48.508;9.206;2022-12-07T22:51:50;14.63;;;6.90;;
12844;SDS011;6489;48.508;9.206;2022-12-07T22:55:12;13.43;;;6.10;;
12844;SDS011;6489;48.508;9.206;2022-12-07T22:58:34;9.37;;;5.83;;
12844;SDS011;6489;48.508;9.206;2022-12-07T23:01:58;11.33;;;5.77;;